Grande Lagos — IBDW — position and weather

sailwx.info

Track history (hours):
 
Tides and Currents Weather Stations Pressure Air Temp Water Temp Dewpoint Dewpoint Depression Visibility Wind Speed Wind Dir Waves Ship Positions

Grande Lagos

Last reported at 2018-Aug-14 18:59 UTC. Time now 2018-Aug-14 19:26 UTC.
Position N 33°02' W 012°14'.

Length 236 m; draft 8.4 m.

Type: Ship (hazmat cat A). MMSI: 247341100.

Date/timePositionNaut miles runAvg speedWind from/ knotsBaromVisibWave heightAir tempDewpointWater temp
2018-Aug-14 18:59N 33°02' W 012°14'814.1
2018-Aug-14 18:26N 32°55' W 012°16'1013.9
2018-Aug-14 17:43N 32°45' W 012°18'414.1
2018-Aug-14 17:25N 32°41' W 012°19'614.0
2018-Aug-14 16:59N 32°35' W 012°20'713.8
2018-Aug-14 16:28N 32°28' W 012°22'813.8
2018-Aug-14 15:52N 32°20' W 012°24'1813.8
2018-Aug-14 14:35N 32°02' W 012°28'713.8
2018-Aug-14 14:05N 31°56' W 012°30'214.0
2018-Aug-14 13:57N 31°54' W 012°30'613.8
2018-Aug-14 13:30N 31°48' W 012°32'713.7
2018-Aug-14 13:00N 31°41' W 012°33'713.7
2018-Aug-14 12:30N 31°34' W 012°35'713.7
2018-Aug-14 12:00N 31°28' W 012°37'913.7
2018-Aug-14 11:21N 31°19' W 012°38'513.4
2018-Aug-14 10:58N 31°14' W 012°39'713.7
2018-Aug-14 10:26N 31°07' W 012°41'713.8
2018-Aug-14 09:56N 30°60' W 012°42'613.8
2018-Aug-14 09:30N 30°54' W 012°44'713.8
2018-Aug-14 09:00N 30°47' W 012°45'713.8
2018-Aug-14 08:30N 30°40' W 012°47'713.7
2018-Aug-14 08:00N 30°34' W 012°48'713.8
2018-Aug-14 07:30N 30°27' W 012°50'713.8
2018-Aug-14 07:00N 30°20' W 012°52'713.9
2018-Aug-14 06:30N 30°13' W 012°53'713.8
2018-Aug-14 06:00N 30°07' W 012°55'713.9
2018-Aug-14 05:30N 29°60' W 012°57'714.0
2018-Aug-14 05:00N 29°53' W 012°58'714.0
2018-Aug-14 04:30N 29°46' W 012°60'713.8
2018-Aug-14 04:00N 29°39' W 013°01'713.8
2018-Aug-14 03:30N 29°33' W 013°03'713.8
2018-Aug-14 03:00N 29°26' W 013°04'713.6
2018-Aug-14 02:30N 29°19' W 013°06'913.7
2018-Aug-14 01:50N 29°11' W 013°12'513.9
2018-Aug-14 01:30N 29°08' W 013°15'713.6
2018-Aug-14 01:00N 29°03' W 013°20'713.5
2018-Aug-14 00:27N 28°57' W 013°26'613.6
2018-Aug-14 00:00N 28°53' W 013°31'713.6
2018-Aug-13 23:30N 28°48' W 013°36'713.2
2018-Aug-13 23:00N 28°43' W 013°41'612.8
2018-Aug-13 22:30N 28°36' W 013°42'712.6
2018-Aug-13 21:59N 28°30' W 013°42'612.3
2018-Aug-13 21:30N 28°24' W 013°43'612.3
2018-Aug-13 21:00N 28°18' W 013°46'612.2
2018-Aug-13 20:30N 28°13' W 013°49'712.2
2018-Aug-13 19:58N 28°07' W 013°53'612.3
2018-Aug-13 19:30N 28°03' W 013°57'612.3
2018-Aug-13 19:00N 27°58' W 014°01'713.8
2018-Aug-13 18:30N 27°52' W 014°05'714.2
2018-Aug-13 18:00N 27°46' W 014°10'714.5
2018-Aug-13 17:30N 27°40' W 014°15'815.1
2018-Aug-13 17:00N 27°34' W 014°20'815.4
2018-Aug-13 16:30N 27°28' W 014°25'815.5
2018-Aug-13 16:00N 27°22' W 014°30'815.3
2018-Aug-13 15:29N 27°16' W 014°36'2915.6
2018-Aug-13 13:39N 26°53' W 014°55'  
2018-Aug-06 12:42N 05°00' W 000°32'312.3
2018-Aug-06 12:27N 05°02' W 000°29'812.3
2018-Aug-06 11:47N 05°07' W 000°22'412.6
2018-Aug-06 11:26N 05°09' W 000°19'512.7
2018-Aug-06 11:00N 05°13' W 000°15'712.6
2018-Aug-06 10:28N 05°17' W 000°09'612.7
2018-Aug-06 10:00N 05°20' W 000°04'612.7
2018-Aug-06 09:30N 05°24' E 000°01'612.8
2018-Aug-06 09:00N 05°28' E 000°05'713.2
2018-Aug-06 08:31N 05°35' E 000°04'4 8.5
2018-Aug-06 08:00N 05°38' E 000°01'0 0.5
2018-Aug-06 07:28N 05°38' E 000°01'0 0.0
2018-Aug-06 06:58N 05°38' E 000°01'0 0.0
2018-Aug-06 06:28N 05°38' E 000°01'0 0.0
2018-Aug-06 05:58N 05°38' E 000°01'0 0.0
2018-Aug-06 05:28N 05°38' E 000°01'0 0.0
2018-Aug-06 04:58N 05°38' E 000°01'0 0.0
2018-Aug-06 04:28N 05°38' E 000°01'0 0.0
2018-Aug-06 03:58N 05°38' E 000°01'0 0.0
2018-Aug-06 03:28N 05°38' E 000°01'0 0.0
2018-Aug-06 02:58N 05°38' E 000°01'0 0.0
2018-Aug-06 02:28N 05°38' E 000°01'0 0.0
2018-Aug-06 01:58N 05°38' E 000°01'0 0.0
2018-Aug-06 01:28N 05°38' E 000°01'0 0.0
2018-Aug-06 00:58N 05°38' E 000°01'0 0.0
2018-Aug-06 00:28N 05°38' E 000°01'0 0.0
2018-Aug-05 23:58N 05°38' E 000°01'0 0.0
2018-Aug-05 23:28N 05°38' E 000°01'0 0.0
2018-Aug-05 22:58N 05°38' E 000°01'0 0.0
2018-Aug-05 22:25N 05°38' E 000°01'0 0.0
2018-Aug-05 21:58N 05°38' E 000°01'0 0.0
2018-Aug-05 21:28N 05°38' E 000°01'0 0.0
2018-Aug-05 20:58N 05°38' E 000°01'0 0.0
2018-Aug-05 20:28N 05°38' E 000°01'0 0.0
2018-Aug-05 19:58N 05°38' E 000°01'0 0.0
2018-Aug-05 19:28N 05°38' E 000°01'0 0.0
2018-Aug-05 18:58N 05°38' E 000°01'0 0.0
2018-Aug-05 18:28N 05°38' E 000°01'0 0.0
2018-Aug-05 17:58N 05°38' E 000°01'0 0.0
2018-Aug-05 17:28N 05°38' E 000°01'0 0.0
2018-Aug-05 16:58N 05°38' E 000°01'0 0.0
2018-Aug-05 16:28N 05°38' E 000°01'0 0.0
2018-Aug-05 15:58N 05°38' E 000°01'0 0.0
2018-Aug-05 15:28N 05°38' E 000°01'0 0.0
2018-Aug-05 14:58N 05°38' E 000°01'0 0.0
2018-Aug-05 14:28N 05°38' E 000°01'0 0.0
2018-Aug-05 13:28N 05°38' E 000°01'0 0.0
2018-Aug-05 12:58N 05°38' E 000°01'0 0.0
2018-Aug-05 12:28N 05°38' E 000°01'0 0.0
2018-Aug-05 11:58N 05°38' E 000°01'0 0.0
2018-Aug-05 11:28N 05°38' E 000°01'0 0.0
2018-Aug-05 10:58N 05°38' E 000°01'0 0.0
2018-Aug-05 10:28N 05°38' E 000°01'0 0.0
2018-Aug-05 09:58N 05°38' E 000°01'0 0.0
2018-Aug-05 09:28N 05°38' E 000°01'0 0.0
2018-Aug-05 08:58N 05°38' E 000°01'0 0.0
2018-Aug-05 08:28N 05°38' E 000°01'0 0.2
2018-Aug-05 08:00N 05°38' E 000°01'2 4.8
2018-Aug-05 07:30N 05°37' E 000°03'2 3.9
2018-Aug-05 07:00N 05°36' E 000°04'2 4.0
2018-Aug-05 06:30N 05°34' E 000°05'713.4
2018-Aug-05 06:00N 05°31' E 000°12'714.3
2018-Aug-05 05:30N 05°31' E 000°19'714.3
2018-Aug-05 05:00N 05°30' E 000°26'714.2
2018-Aug-05 04:30N 05°30' E 000°33'914.2
2018-Aug-05 03:54N 05°30' E 000°42'614.1
2018-Aug-05 03:30N 05°29' E 000°47'714.3
2018-Aug-05 03:00N 05°29' E 000°54'1014.0
2018-Aug-05 02:18N 05°31' E 001°04'514.3
2018-Aug-05 01:56N 05°33' E 001°09'614.4
2018-Aug-05 01:29N 05°35' E 001°15'714.0
2018-Aug-05 00:59N 05°37' E 001°22'1114.1
2018-Aug-05 00:12N 05°40' E 001°33'  
Track history (hours):
 
Tides and Currents Weather Stations Pressure Air Temp Water Temp Dewpoint Dewpoint Depression Visibility Wind Speed Wind Dir Waves Ship Positions

Grande Lagos

Last reported at 2018-Aug-14 18:59 UTC. Time now 2018-Aug-14 19:26 UTC.
Position N 33°02' W 012°14'.

Length 236 m; draft 8.4 m.

Type: Ship (hazmat cat A). MMSI: 247341100.

Date/timePositionNaut miles runAvg speedWind from/ knotsBaromVisibWave heightAir tempDewpointWater temp
2018-Aug-14 18:59N 33°02' W 012°14'814.1
2018-Aug-14 18:26N 32°55' W 012°16'1013.9
2018-Aug-14 17:43N 32°45' W 012°18'414.1
2018-Aug-14 17:25N 32°41' W 012°19'614.0
2018-Aug-14 16:59N 32°35' W 012°20'713.8
2018-Aug-14 16:28N 32°28' W 012°22'813.8
2018-Aug-14 15:52N 32°20' W 012°24'1813.8
2018-Aug-14 14:35N 32°02' W 012°28'713.8
2018-Aug-14 14:05N 31°56' W 012°30'214.0
2018-Aug-14 13:57N 31°54' W 012°30'613.8
2018-Aug-14 13:30N 31°48' W 012°32'713.7
2018-Aug-14 13:00N 31°41' W 012°33'713.7
2018-Aug-14 12:30N 31°34' W 012°35'713.7
2018-Aug-14 12:00N 31°28' W 012°37'913.7
2018-Aug-14 11:21N 31°19' W 012°38'513.4
2018-Aug-14 10:58N 31°14' W 012°39'713.7
2018-Aug-14 10:26N 31°07' W 012°41'713.8
2018-Aug-14 09:56N 30°60' W 012°42'613.8
2018-Aug-14 09:30N 30°54' W 012°44'713.8
2018-Aug-14 09:00N 30°47' W 012°45'713.8
2018-Aug-14 08:30N 30°40' W 012°47'713.7
2018-Aug-14 08:00N 30°34' W 012°48'713.8
2018-Aug-14 07:30N 30°27' W 012°50'713.8
2018-Aug-14 07:00N 30°20' W 012°52'713.9
2018-Aug-14 06:30N 30°13' W 012°53'713.8
2018-Aug-14 06:00N 30°07' W 012°55'713.9
2018-Aug-14 05:30N 29°60' W 012°57'714.0
2018-Aug-14 05:00N 29°53' W 012°58'714.0
2018-Aug-14 04:30N 29°46' W 012°60'713.8
2018-Aug-14 04:00N 29°39' W 013°01'713.8
2018-Aug-14 03:30N 29°33' W 013°03'713.8
2018-Aug-14 03:00N 29°26' W 013°04'713.6
2018-Aug-14 02:30N 29°19' W 013°06'913.7
2018-Aug-14 01:50N 29°11' W 013°12'513.9
2018-Aug-14 01:30N 29°08' W 013°15'713.6
2018-Aug-14 01:00N 29°03' W 013°20'713.5
2018-Aug-14 00:27N 28°57' W 013°26'613.6
2018-Aug-14 00:00N 28°53' W 013°31'713.6
2018-Aug-13 23:30N 28°48' W 013°36'713.2
2018-Aug-13 23:00N 28°43' W 013°41'612.8
2018-Aug-13 22:30N 28°36' W 013°42'712.6
2018-Aug-13 21:59N 28°30' W 013°42'612.3
2018-Aug-13 21:30N 28°24' W 013°43'612.3
2018-Aug-13 21:00N 28°18' W 013°46'612.2
2018-Aug-13 20:30N 28°13' W 013°49'712.2
2018-Aug-13 19:58N 28°07' W 013°53'612.3
2018-Aug-13 19:30N 28°03' W 013°57'612.3
2018-Aug-13 19:00N 27°58' W 014°01'713.8
2018-Aug-13 18:30N 27°52' W 014°05'714.2
2018-Aug-13 18:00N 27°46' W 014°10'714.5
2018-Aug-13 17:30N 27°40' W 014°15'815.1
2018-Aug-13 17:00N 27°34' W 014°20'815.4
2018-Aug-13 16:30N 27°28' W 014°25'815.5
2018-Aug-13 16:00N 27°22' W 014°30'815.3
2018-Aug-13 15:29N 27°16' W 014°36'2915.6
2018-Aug-13 13:39N 26°53' W 014°55'  
2018-Aug-06 12:42N 05°00' W 000°32'312.3
2018-Aug-06 12:27N 05°02' W 000°29'812.3
2018-Aug-06 11:47N 05°07' W 000°22'412.6
2018-Aug-06 11:26N 05°09' W 000°19'512.7
2018-Aug-06 11:00N 05°13' W 000°15'712.6
2018-Aug-06 10:28N 05°17' W 000°09'612.7
2018-Aug-06 10:00N 05°20' W 000°04'612.7
2018-Aug-06 09:30N 05°24' E 000°01'612.8
2018-Aug-06 09:00N 05°28' E 000°05'713.2
2018-Aug-06 08:31N 05°35' E 000°04'4 8.5
2018-Aug-06 08:00N 05°38' E 000°01'0 0.5
2018-Aug-06 07:28N 05°38' E 000°01'0 0.0
2018-Aug-06 06:58N 05°38' E 000°01'0 0.0
2018-Aug-06 06:28N 05°38' E 000°01'0 0.0
2018-Aug-06 05:58N 05°38' E 000°01'0 0.0
2018-Aug-06 05:28N 05°38' E 000°01'0 0.0
2018-Aug-06 04:58N 05°38' E 000°01'0 0.0
2018-Aug-06 04:28N 05°38' E 000°01'0 0.0
2018-Aug-06 03:58N 05°38' E 000°01'0 0.0
2018-Aug-06 03:28N 05°38' E 000°01'0 0.0
2018-Aug-06 02:58N 05°38' E 000°01'0 0.0
2018-Aug-06 02:28N 05°38' E 000°01'0 0.0
2018-Aug-06 01:58N 05°38' E 000°01'0 0.0
2018-Aug-06 01:28N 05°38' E 000°01'0 0.0
2018-Aug-06 00:58N 05°38' E 000°01'0 0.0
2018-Aug-06 00:28N 05°38' E 000°01'0 0.0
2018-Aug-05 23:58N 05°38' E 000°01'0 0.0
2018-Aug-05 23:28N 05°38' E 000°01'0 0.0
2018-Aug-05 22:58N 05°38' E 000°01'0 0.0
2018-Aug-05 22:25N 05°38' E 000°01'0 0.0
2018-Aug-05 21:58N 05°38' E 000°01'0 0.0
2018-Aug-05 21:28N 05°38' E 000°01'0 0.0
2018-Aug-05 20:58N 05°38' E 000°01'0 0.0
2018-Aug-05 20:28N 05°38' E 000°01'0 0.0
2018-Aug-05 19:58N 05°38' E 000°01'0 0.0
2018-Aug-05 19:28N 05°38' E 000°01'0 0.0
2018-Aug-05 18:58N 05°38' E 000°01'0 0.0
2018-Aug-05 18:28N 05°38' E 000°01'0 0.0
2018-Aug-05 17:58N 05°38' E 000°01'0 0.0
2018-Aug-05 17:28N 05°38' E 000°01'0 0.0
2018-Aug-05 16:58N 05°38' E 000°01'0 0.0
2018-Aug-05 16:28N 05°38' E 000°01'0 0.0
2018-Aug-05 15:58N 05°38' E 000°01'0 0.0
2018-Aug-05 15:28N 05°38' E 000°01'0 0.0
2018-Aug-05 14:58N 05°38' E 000°01'0 0.0
2018-Aug-05 14:28N 05°38' E 000°01'0 0.0
2018-Aug-05 13:28N 05°38' E 000°01'0 0.0
2018-Aug-05 12:58N 05°38' E 000°01'0 0.0
2018-Aug-05 12:28N 05°38' E 000°01'0 0.0
2018-Aug-05 11:58N 05°38' E 000°01'0 0.0
2018-Aug-05 11:28N 05°38' E 000°01'0 0.0
2018-Aug-05 10:58N 05°38' E 000°01'0 0.0
2018-Aug-05 10:28N 05°38' E 000°01'0 0.0
2018-Aug-05 09:58N 05°38' E 000°01'0 0.0
2018-Aug-05 09:28N 05°38' E 000°01'0 0.0
2018-Aug-05 08:58N 05°38' E 000°01'0 0.0
2018-Aug-05 08:28N 05°38' E 000°01'0 0.2
2018-Aug-05 08:00N 05°38' E 000°01'2 4.8
2018-Aug-05 07:30N 05°37' E 000°03'2 3.9
2018-Aug-05 07:00N 05°36' E 000°04'2 4.0
2018-Aug-05 06:30N 05°34' E 000°05'713.4
2018-Aug-05 06:00N 05°31' E 000°12'714.3
2018-Aug-05 05:30N 05°31' E 000°19'714.3
2018-Aug-05 05:00N 05°30' E 000°26'714.2
2018-Aug-05 04:30N 05°30' E 000°33'914.2
2018-Aug-05 03:54N 05°30' E 000°42'614.1
2018-Aug-05 03:30N 05°29' E 000°47'714.3
2018-Aug-05 03:00N 05°29' E 000°54'1014.0
2018-Aug-05 02:18N 05°31' E 001°04'514.3
2018-Aug-05 01:56N 05°33' E 001°09'614.4
2018-Aug-05 01:29N 05°35' E 001°15'714.0
2018-Aug-05 00:59N 05°37' E 001°22'1114.1
2018-Aug-05 00:12N 05°40' E 001°33'  

Dump ship's entire track history